WZZ601 EDHI-LHBP
Flight info
| Callsign | WZZ601 |
|---|---|
| Flight time | N/A |
| Altitude | 39000 |
| Route | AMLUH M852 DENIX DCT ZUCKA DCT OMELO DCT EVIKU DCT ODNEM DCT NIT/N0345F230 M748 ARFOX |
| Aircraft | A21N/M-SDE1E2E3FGIJ1J4RWXY/LB1 |
Departure
| Time | 2026-05-05 16:27 |
|---|---|
| Airport | Hamburg-Finkenwerder Airport (EDHI) |
Arrival
| Time | N/A |
|---|---|
| Airport | Budapest Liszt Ferenc International Airport (LHBP) |
| Time | Latitude | Longitude | Altitude | Speed | Heading |
|---|---|---|---|---|---|
| 2026-05-05 15:32 | 53.53122 | 9.83473 | 25 ft | 0 kts | 207° |
| 2026-05-05 16:19 | 53.53126 | 9.83476 | 25 ft | 2 kts | 207° |
| 2026-05-05 16:19 | 53.53151 | 9.83505 | 25 ft | 2 kts | 244° |
| 2026-05-05 16:20 | 53.53153 | 9.83549 | 25 ft | 0 kts | 292° |
| 2026-05-05 16:20 | 53.53149 | 9.83560 | 25 ft | 0 kts | 296° |
| 2026-05-05 16:22 | 53.53154 | 9.83542 | 25 ft | 2 kts | 295° |
| 2026-05-05 16:23 | 53.53178 | 9.83456 | 25 ft | 6 kts | 296° |
| 2026-05-05 16:23 | 53.53199 | 9.83382 | 25 ft | 7 kts | 294° |
| 2026-05-05 16:23 | 53.53282 | 9.83287 | 25 ft | 0 kts | 295° |
| 2026-05-05 16:24 | 53.53285 | 9.83276 | 25 ft | 2 kts | 295° |
| 2026-05-05 16:24 | 53.53296 | 9.83235 | 25 ft | 5 kts | 295° |
| 2026-05-05 16:24 | 53.53307 | 9.83080 | 25 ft | 9 kts | 240° |
| 2026-05-05 16:25 | 53.53262 | 9.82980 | 25 ft | 12 kts | 232° |
| 2026-05-05 16:25 | 53.53140 | 9.82721 | 25 ft | 15 kts | 232° |
| 2026-05-05 16:25 | 53.53070 | 9.82574 | 25 ft | 16 kts | 232° |
| 2026-05-05 16:26 | 53.52934 | 9.82259 | 24 ft | 13 kts | 257° |
| 2026-05-05 16:26 | 53.52913 | 9.82245 | 24 ft | 9 kts | 50° |
| 2026-05-05 16:27 | 53.53073 | 9.82583 | 25 ft | 81 kts | 52° |
| 2026-05-05 16:27 | 53.53603 | 9.83711 | 97 ft | 152 kts | 51° |
| 2026-05-05 16:27 | 53.54238 | 9.85106 | 985 ft | 154 kts | 52° |
| 2026-05-05 16:27 | 53.54870 | 9.86485 | 1947 ft | 156 kts | 51° |
| 2026-05-05 16:28 | 53.55583 | 9.87978 | 2710 ft | 173 kts | 50° |
| 2026-05-05 16:28 | 53.56371 | 9.89625 | 3447 ft | 193 kts | 50° |
| 2026-05-05 16:28 | 53.57210 | 9.91535 | 4228 ft | 213 kts | 62° |
| 2026-05-05 16:28 | 53.57429 | 9.94052 | 4992 ft | 237 kts | 100° |
| 2026-05-05 16:29 | 53.56678 | 9.96654 | 5815 ft | 258 kts | 124° |
| 2026-05-05 16:29 | 53.55597 | 9.99113 | 6762 ft | 270 kts | 127° |
| 2026-05-05 16:29 | 53.54476 | 10.01664 | 7844 ft | 276 kts | 126° |
| 2026-05-05 16:29 | 53.53392 | 10.04280 | 8896 ft | 281 kts | 125° |
| 2026-05-05 16:30 | 53.52307 | 10.07032 | 9923 ft | 286 kts | 124° |
| 2026-05-05 16:30 | 53.51220 | 10.09876 | 10908 ft | 292 kts | 124° |
| 2026-05-05 16:30 | 53.50134 | 10.12764 | 11882 ft | 296 kts | 123° |
| 2026-05-05 16:30 | 53.49038 | 10.15707 | 12837 ft | 301 kts | 123° |
| 2026-05-05 16:31 | 53.47924 | 10.18702 | 13753 ft | 306 kts | 124° |
| 2026-05-05 16:31 | 53.46798 | 10.21727 | 14700 ft | 310 kts | 124° |
| 2026-05-05 16:31 | 53.45656 | 10.24797 | 15599 ft | 314 kts | 124° |
| 2026-05-05 16:31 | 53.44485 | 10.27946 | 16442 ft | 319 kts | 124° |
| 2026-05-05 16:32 | 53.43175 | 10.30930 | 17252 ft | 320 kts | 139° |
| 2026-05-05 16:32 | 53.41331 | 10.32972 | 18080 ft | 316 kts | 161° |
| 2026-05-05 16:32 | 53.39246 | 10.34029 | 18890 ft | 316 kts | 169° |
| 2026-05-05 16:32 | 53.37125 | 10.34940 | 19660 ft | 320 kts | 169° |
| 2026-05-05 16:33 | 53.34950 | 10.35869 | 20440 ft | 323 kts | 169° |
| 2026-05-05 16:33 | 53.32760 | 10.36819 | 21208 ft | 326 kts | 169° |
| 2026-05-05 16:33 | 53.30555 | 10.37790 | 21938 ft | 330 kts | 169° |
| 2026-05-05 16:33 | 53.28336 | 10.38775 | 22658 ft | 333 kts | 169° |
| 2026-05-05 16:34 | 53.26075 | 10.39784 | 23376 ft | 336 kts | 169° |
| 2026-05-05 16:34 | 53.23801 | 10.40801 | 24076 ft | 339 kts | 169° |
| 2026-05-05 16:34 | 53.21509 | 10.41826 | 24760 ft | 342 kts | 170° |
| 2026-05-05 16:34 | 53.19183 | 10.42863 | 25436 ft | 344 kts | 170° |
| 2026-05-05 16:35 | 53.16886 | 10.43888 | 26108 ft | 347 kts | 170° |
| 2026-05-05 16:35 | 53.14535 | 10.44937 | 26759 ft | 350 kts | 171° |
| 2026-05-05 16:35 | 53.12154 | 10.45884 | 27374 ft | 351 kts | 174° |
| 2026-05-05 16:35 | 53.09752 | 10.46640 | 27986 ft | 353 kts | 175° |
| 2026-05-05 16:36 | 53.07318 | 10.47397 | 28598 ft | 356 kts | 175° |
| 2026-05-05 16:36 | 53.04865 | 10.48159 | 29206 ft | 359 kts | 175° |
| 2026-05-05 16:36 | 53.02391 | 10.48927 | 29810 ft | 361 kts | 175° |
| 2026-05-05 16:36 | 52.99881 | 10.49706 | 30392 ft | 364 kts | 175° |
| 2026-05-05 16:37 | 52.97398 | 10.50476 | 30962 ft | 367 kts | 175° |
| 2026-05-05 16:37 | 52.94865 | 10.51260 | 31516 ft | 370 kts | 175° |
| 2026-05-05 16:37 | 52.92283 | 10.52057 | 32056 ft | 373 kts | 175° |
| 2026-05-05 16:37 | 52.89735 | 10.52845 | 32598 ft | 375 kts | 175° |
| 2026-05-05 16:38 | 52.87120 | 10.53652 | 33175 ft | 377 kts | 175° |
| 2026-05-05 16:38 | 52.84504 | 10.54461 | 33735 ft | 379 kts | 175° |
| 2026-05-05 16:38 | 52.81906 | 10.55262 | 34246 ft | 381 kts | 175° |
| 2026-05-05 16:38 | 52.79281 | 10.56069 | 34736 ft | 383 kts | 175° |
| 2026-05-05 16:39 | 52.76619 | 10.56886 | 35160 ft | 386 kts | 175° |
| 2026-05-05 16:39 | 52.73981 | 10.57693 | 35497 ft | 389 kts | 175° |
| 2026-05-05 16:39 | 52.71287 | 10.58518 | 35801 ft | 392 kts | 174° |
| 2026-05-05 16:39 | 52.68594 | 10.59340 | 36091 ft | 395 kts | 174° |
| 2026-05-05 16:40 | 52.65849 | 10.60180 | 36375 ft | 398 kts | 174° |
| 2026-05-05 16:40 | 52.63086 | 10.61024 | 36620 ft | 402 kts | 174° |
| 2026-05-05 16:40 | 52.60313 | 10.61870 | 36890 ft | 404 kts | 174° |
| 2026-05-05 16:40 | 52.57540 | 10.62715 | 37182 ft | 407 kts | 174° |
| 2026-05-05 16:41 | 52.54697 | 10.63580 | 37475 ft | 410 kts | 174° |
| 2026-05-05 16:41 | 52.51884 | 10.64436 | 37740 ft | 413 kts | 174° |
| 2026-05-05 16:41 | 52.48994 | 10.65312 | 38011 ft | 416 kts | 174° |
| 2026-05-05 16:41 | 52.46108 | 10.66187 | 38260 ft | 419 kts | 174° |
| 2026-05-05 16:42 | 52.43236 | 10.67058 | 38504 ft | 421 kts | 174° |
| 2026-05-05 16:42 | 52.40334 | 10.67938 | 38729 ft | 424 kts | 174° |
| 2026-05-05 16:42 | 52.34469 | 10.69710 | 38829 ft | 426 kts | 174° |
| 2026-05-05 16:43 | 52.28589 | 10.71481 | 38830 ft | 425 kts | 174° |
| 2026-05-05 16:43 | 52.22756 | 10.73232 | 38828 ft | 426 kts | 174° |
| 2026-05-05 16:44 | 52.16918 | 10.74982 | 38824 ft | 424 kts | 174° |
| 2026-05-05 16:44 | 52.11058 | 10.76732 | 38811 ft | 424 kts | 174° |
| 2026-05-05 16:45 | 52.05250 | 10.78463 | 38807 ft | 423 kts | 174° |
| 2026-05-05 16:45 | 51.99421 | 10.80197 | 38804 ft | 422 kts | 174° |
| 2026-05-05 16:46 | 51.93640 | 10.81909 | 38808 ft | 422 kts | 174° |
| 2026-05-05 16:46 | 51.87847 | 10.83624 | 38811 ft | 421 kts | 174° |
| 2026-05-05 16:47 | 51.81958 | 10.85363 | 38805 ft | 421 kts | 174° |
| 2026-05-05 16:47 | 51.76229 | 10.87309 | 38803 ft | 425 kts | 167° |
| 2026-05-05 16:48 | 51.70819 | 10.91480 | 38799 ft | 434 kts | 151° |
| 2026-05-05 16:48 | 51.66304 | 10.97980 | 38805 ft | 443 kts | 135° |
| 2026-05-05 16:49 | 51.63010 | 11.06591 | 38803 ft | 452 kts | 118° |
| 2026-05-05 16:49 | 51.60630 | 11.15907 | 38807 ft | 450 kts | 116° |
| 2026-05-05 16:50 | 51.58277 | 11.25277 | 38804 ft | 449 kts | 116° |
| 2026-05-05 16:50 | 51.55913 | 11.34581 | 38802 ft | 448 kts | 117° |
| 2026-05-05 16:51 | 51.53537 | 11.43848 | 38798 ft | 448 kts | 117° |
| 2026-05-05 16:51 | 51.51150 | 11.53110 | 38793 ft | 448 kts | 117° |
| 2026-05-05 16:52 | 51.48753 | 11.62361 | 38790 ft | 448 kts | 117° |
| 2026-05-05 16:52 | 51.46348 | 11.71609 | 38782 ft | 447 kts | 117° |
| 2026-05-05 16:53 | 51.43954 | 11.80784 | 38791 ft | 447 kts | 117° |
| 2026-05-05 16:53 | 51.41536 | 11.90000 | 38783 ft | 447 kts | 117° |
| 2026-05-05 16:54 | 51.39126 | 11.99159 | 38794 ft | 446 kts | 117° |
| 2026-05-05 16:54 | 51.36691 | 12.08364 | 38795 ft | 446 kts | 117° |
| 2026-05-05 16:55 | 51.34254 | 12.17548 | 38780 ft | 445 kts | 117° |
| 2026-05-05 16:55 | 51.31820 | 12.26691 | 38778 ft | 445 kts | 117° |
| 2026-05-05 16:56 | 51.29364 | 12.35866 | 38786 ft | 445 kts | 117° |
| 2026-05-05 16:56 | 51.26923 | 12.44954 | 38789 ft | 445 kts | 117° |
| 2026-05-05 16:57 | 51.24471 | 12.54050 | 38777 ft | 445 kts | 117° |
| 2026-05-05 16:57 | 51.22018 | 12.63114 | 38768 ft | 444 kts | 117° |
| 2026-05-05 16:58 | 51.19516 | 12.72321 | 38769 ft | 444 kts | 118° |
| 2026-05-05 16:58 | 51.17058 | 12.81334 | 38769 ft | 444 kts | 118° |
| 2026-05-05 16:59 | 51.14579 | 12.90379 | 38763 ft | 444 kts | 118° |
| 2026-05-05 16:59 | 51.12092 | 12.99432 | 38759 ft | 443 kts | 118° |
| 2026-05-05 17:00 | 51.09608 | 13.08429 | 38762 ft | 443 kts | 118° |
| 2026-05-05 17:00 | 51.07104 | 13.17462 | 38764 ft | 443 kts | 118° |
| 2026-05-05 17:01 | 51.04599 | 13.26472 | 38767 ft | 442 kts | 118° |
| 2026-05-05 17:01 | 51.02102 | 13.35417 | 38768 ft | 442 kts | 118° |
| 2026-05-05 17:02 | 50.99593 | 13.44369 | 38772 ft | 442 kts | 118° |
| 2026-05-05 17:02 | 50.97077 | 13.53317 | 38771 ft | 442 kts | 118° |
| 2026-05-05 17:03 | 50.94539 | 13.62307 | 38763 ft | 442 kts | 118° |
| 2026-05-05 17:03 | 50.91997 | 13.71285 | 38760 ft | 442 kts | 118° |
| 2026-05-05 17:04 | 50.89471 | 13.80176 | 38761 ft | 442 kts | 119° |
| 2026-05-05 17:04 | 50.86870 | 13.89128 | 38758 ft | 440 kts | 121° |
| 2026-05-05 17:05 | 50.83802 | 13.97378 | 38764 ft | 438 kts | 129° |
| 2026-05-05 17:05 | 50.79999 | 14.05016 | 38765 ft | 436 kts | 136° |
| 2026-05-05 17:06 | 50.75671 | 14.11711 | 38766 ft | 436 kts | 141° |
| 2026-05-05 17:06 | 50.71166 | 14.18205 | 38758 ft | 436 kts | 142° |
| 2026-05-05 17:07 | 50.66649 | 14.24699 | 38745 ft | 438 kts | 141° |
| 2026-05-05 17:07 | 50.62143 | 14.31172 | 38748 ft | 438 kts | 141° |
| 2026-05-05 17:08 | 50.57592 | 14.37689 | 38750 ft | 438 kts | 141° |
| 2026-05-05 17:08 | 50.53048 | 14.44187 | 38751 ft | 439 kts | 141° |
| 2026-05-05 17:09 | 50.48500 | 14.50663 | 38754 ft | 439 kts | 141° |
| 2026-05-05 17:09 | 50.44118 | 14.57450 | 38747 ft | 441 kts | 136° |
| 2026-05-05 17:10 | 50.39941 | 14.64597 | 38750 ft | 441 kts | 135° |
| 2026-05-05 17:10 | 50.35773 | 14.71731 | 38740 ft | 441 kts | 136° |
| 2026-05-05 17:11 | 50.31601 | 14.78859 | 38737 ft | 441 kts | 136° |
| 2026-05-05 17:11 | 50.27388 | 14.86022 | 38731 ft | 442 kts | 136° |
| 2026-05-05 17:12 | 50.23201 | 14.93129 | 38726 ft | 443 kts | 135° |
| 2026-05-05 17:12 | 50.19013 | 15.00217 | 38720 ft | 443 kts | 135° |
| 2026-05-05 17:13 | 50.14794 | 15.07338 | 38715 ft | 443 kts | 135° |
| 2026-05-05 17:13 | 50.10601 | 15.14398 | 38701 ft | 443 kts | 135° |
| 2026-05-05 17:14 | 50.06403 | 15.21445 | 38700 ft | 444 kts | 135° |
| 2026-05-05 17:14 | 50.02185 | 15.28506 | 38697 ft | 443 kts | 135° |
| 2026-05-05 17:15 | 49.97961 | 15.35558 | 38702 ft | 444 kts | 135° |
| 2026-05-05 17:15 | 49.93746 | 15.42577 | 38725 ft | 443 kts | 135° |
| 2026-05-05 17:16 | 49.89523 | 15.49583 | 38729 ft | 443 kts | 135° |
| 2026-05-05 17:16 | 49.85274 | 15.56618 | 38727 ft | 443 kts | 135° |
| 2026-05-05 17:17 | 49.81013 | 15.63653 | 38739 ft | 443 kts | 135° |
| 2026-05-05 17:17 | 49.76780 | 15.70618 | 38731 ft | 443 kts | 136° |
| 2026-05-05 17:18 | 49.72520 | 15.77614 | 38746 ft | 443 kts | 136° |
| 2026-05-05 17:18 | 49.68257 | 15.84596 | 38738 ft | 443 kts | 136° |
| 2026-05-05 17:19 | 49.64022 | 15.91513 | 38734 ft | 443 kts | 136° |
| 2026-05-05 17:19 | 49.59752 | 15.98463 | 38735 ft | 443 kts | 136° |
| 2026-05-05 17:20 | 49.55496 | 16.05373 | 38744 ft | 443 kts | 136° |
| 2026-05-05 17:20 | 49.51217 | 16.12302 | 38735 ft | 443 kts | 136° |
| 2026-05-05 17:21 | 49.46941 | 16.19208 | 38734 ft | 442 kts | 136° |
| 2026-05-05 17:22 | 49.40550 | 16.29495 | 38734 ft | 442 kts | 136° |
| 2026-05-05 17:22 | 49.36279 | 16.36350 | 38744 ft | 442 kts | 136° |
| 2026-05-05 17:23 | 49.32018 | 16.43167 | 38743 ft | 442 kts | 136° |
| 2026-05-05 17:23 | 49.27749 | 16.49979 | 38748 ft | 442 kts | 135° |
| 2026-05-05 17:24 | 49.23456 | 16.56812 | 38744 ft | 442 kts | 135° |
| 2026-05-05 17:24 | 49.19147 | 16.63654 | 38741 ft | 442 kts | 136° |
| 2026-05-05 17:25 | 49.14866 | 16.70431 | 38760 ft | 442 kts | 136° |
| 2026-05-05 17:25 | 49.10564 | 16.77226 | 38755 ft | 442 kts | 136° |
| 2026-05-05 17:26 | 49.06260 | 16.84005 | 38751 ft | 442 kts | 136° |
| 2026-05-05 17:26 | 49.01961 | 16.90759 | 38749 ft | 442 kts | 136° |
| 2026-05-05 17:27 | 48.97622 | 16.97559 | 38749 ft | 442 kts | 136° |
| 2026-05-05 17:27 | 48.93294 | 17.04325 | 38758 ft | 442 kts | 136° |
| 2026-05-05 17:28 | 48.88994 | 17.11031 | 38766 ft | 442 kts | 136° |
| 2026-05-05 17:28 | 48.84641 | 17.17806 | 38756 ft | 442 kts | 135° |
| 2026-05-05 17:29 | 48.80400 | 17.24539 | 38782 ft | 441 kts | 135° |
| 2026-05-05 17:29 | 48.76140 | 17.31317 | 38784 ft | 441 kts | 135° |
| 2026-05-05 17:30 | 48.71898 | 17.38048 | 38795 ft | 440 kts | 135° |
| 2026-05-05 17:30 | 48.67636 | 17.44786 | 38796 ft | 440 kts | 135° |
| 2026-05-05 17:31 | 48.63388 | 17.51482 | 38812 ft | 439 kts | 135° |
| 2026-05-05 17:31 | 48.59137 | 17.58172 | 38812 ft | 439 kts | 135° |
| 2026-05-05 17:32 | 48.54860 | 17.64882 | 38820 ft | 439 kts | 135° |
| 2026-05-05 17:32 | 48.50642 | 17.71483 | 38816 ft | 438 kts | 136° |
| 2026-05-05 17:33 | 48.46391 | 17.78119 | 38809 ft | 438 kts | 135° |
| 2026-05-05 17:33 | 48.42148 | 17.84728 | 38822 ft | 438 kts | 135° |
| 2026-05-05 17:34 | 48.37927 | 17.91289 | 37872 ft | 442 kts | 135° |
| 2026-05-05 17:34 | 48.35794 | 17.94596 | 36575 ft | 441 kts | 135° |
| 2026-05-05 17:34 | 48.33611 | 17.97979 | 35550 ft | 448 kts | 135° |
| 2026-05-05 17:34 | 48.31422 | 18.01360 | 34522 ft | 452 kts | 135° |
| 2026-05-05 17:35 | 48.29245 | 18.04733 | 33368 ft | 449 kts | 135° |
| 2026-05-05 17:35 | 48.27159 | 18.08164 | 32218 ft | 443 kts | 134° |
| 2026-05-05 17:35 | 48.25047 | 18.11682 | 31056 ft | 451 kts | 134° |
| 2026-05-05 17:35 | 48.22992 | 18.15113 | 29925 ft | 440 kts | 134° |
| 2026-05-05 17:36 | 48.20959 | 18.18502 | 28777 ft | 429 kts | 134° |
| 2026-05-05 17:36 | 48.18991 | 18.21778 | 27643 ft | 419 kts | 134° |
| 2026-05-05 17:36 | 48.17052 | 18.25001 | 26509 ft | 409 kts | 133° |
| 2026-05-05 17:36 | 48.15174 | 18.28117 | 25404 ft | 400 kts | 133° |
| 2026-05-05 17:37 | 48.13334 | 18.31170 | 24299 ft | 392 kts | 133° |
| 2026-05-05 17:37 | 48.11515 | 18.34183 | 23180 ft | 384 kts | 133° |